»·PEaware :: N16RD KSBP-KSMO

N16RD :: KSBP-KSMO

FLIGHT INFORMATION

Flight Status: Arrived
Operator: Privately registered:
United States
More flights under this callsign
Pilot: Brett B. (12105)
Aircraft: CESSNA 162 Skycatcher
(C162)
More flights by this aircraft type
Origin: KSBP San Luis Co Regl
United States
Destination: KSMO Santa Monica Mun
United States
More flights between these airports :: More routes between these airports
Route: RZS V186 DARTS
File this flight plan on PilotEdge
Remarks: SBAP47
Altitude:
(Current/Filed)
7,000ft
Speed:
(Current/Filed)
115kts
Departed: 11-Mar-19 09:09 PM
Arrived: 11-Mar-19 10:26 PM
Distance/Time
Traveled:
131nm/1:17
Distance/Time
To Go:
Arrived

Flight Plot

Page will automatically refresh every two minutes.


Map Options




Map Legend


Flown Route
Filed Route
Departure Airport
Arrival Airport
Navaid (VOR, NDB)
Fix

Horizontal Profiles

Position Reports

Time Latitude Longitude Heading Altitude Ground
Speed
11-Mar-19 20:21 35.237952 -120.638274 359 217ft 0kts
11-Mar-19 20:21 35.237952 -120.638274 359 217ft 0kts
11-Mar-19 20:22 35.237952 -120.638274 359 217ft 0kts
11-Mar-19 20:24 35.237952 -120.638274 359 217ft 0kts
11-Mar-19 20:24 35.237952 -120.638274 359 217ft 0kts
11-Mar-19 20:25 35.237952 -120.638274 359 217ft 0kts
11-Mar-19 20:26 35.237952 -120.638274 359 217ft 0kts
11-Mar-19 20:27 35.237952 -120.638274 359 217ft 0kts
11-Mar-19 20:28 35.237952 -120.638274 359 217ft 0kts
11-Mar-19 20:29 35.237952 -120.638274 359 217ft 0kts
11-Mar-19 20:30 35.237952 -120.638274 359 217ft 0kts
11-Mar-19 20:31 35.237952 -120.638274 359 217ft 0kts
11-Mar-19 20:32 35.237952 -120.638274 359 217ft 0kts
11-Mar-19 20:33 35.237952 -120.638274 359 217ft 0kts
11-Mar-19 20:34 35.237952 -120.638274 359 217ft 0kts
11-Mar-19 20:35 35.237952 -120.638274 359 217ft 0kts
11-Mar-19 20:36 35.237952 -120.638274 359 217ft 0kts
11-Mar-19 20:37 35.237952 -120.638274 359 215ft 0kts
11-Mar-19 20:38 35.237952 -120.638274 359 215ft 0kts
11-Mar-19 20:39 35.237952 -120.638274 359 215ft 0kts
11-Mar-19 20:40 35.237952 -120.638274 359 215ft 0kts
11-Mar-19 20:41 35.237952 -120.638274 359 215ft 0kts
11-Mar-19 20:42 35.237952 -120.638274 359 215ft 0kts
11-Mar-19 20:43 35.237952 -120.638274 359 215ft 0kts
11-Mar-19 20:44 35.237952 -120.638274 359 215ft 0kts
11-Mar-19 20:45 35.237952 -120.638274 359 215ft 0kts
11-Mar-19 20:46 35.237952 -120.638274 359 215ft 0kts
11-Mar-19 20:47 35.237952 -120.638274 359 215ft 0kts
11-Mar-19 20:48 35.237952 -120.638274 359 215ft 0kts
11-Mar-19 20:49 35.237952 -120.638274 359 215ft 0kts
11-Mar-19 20:50 35.237952 -120.638274 359 215ft 0kts
11-Mar-19 20:51 35.237952 -120.638274 359 215ft 0kts
11-Mar-19 20:52 35.237952 -120.638274 359 215ft 0kts
11-Mar-19 20:53 35.237952 -120.638274 359 215ft 0kts
11-Mar-19 20:54 35.237952 -120.638274 359 215ft 0kts
11-Mar-19 20:55 35.237953 -120.638274 359 215ft 0kts
11-Mar-19 20:56 35.237956 -120.638274 0 215ft 0kts
11-Mar-19 20:57 35.237958 -120.638274 0 215ft 0kts
11-Mar-19 20:58 35.237961 -120.638274 0 215ft 0kts
11-Mar-19 20:59 35.237964 -120.638274 0 215ft 0kts
11-Mar-19 21:00 35.237966 -120.638274 0 215ft 0kts
11-Mar-19 21:01 35.237969 -120.638274 0 215ft 0kts
11-Mar-19 21:02 35.237972 -120.638274 0 215ft 0kts
11-Mar-19 21:03 35.237075 -120.637254 202 215ft 7kts
11-Mar-19 21:04 35.236085 -120.636857 124 215ft 8kts
11-Mar-19 21:05 35.234718 -120.634456 123 215ft 15kts
11-Mar-19 21:06 35.233271 -120.632600 220 215ft 0kts
11-Mar-19 21:07 35.233011 -120.632870 222 215ft 6kts
11-Mar-19 21:08 35.241475 -120.647938 298 798ft 70kts
11-Mar-19 21:09 35.252016 -120.680845 297 1437ft 116kts
11-Mar-19 21:10 35.269609 -120.712868 314 2559ft 114kts
11-Mar-19 21:11 35.289945 -120.743708 312 3560ft 114kts
11-Mar-19 21:12 35.302934 -120.777567 237 4554ft 137kts
11-Mar-19 21:13 35.273102 -120.762389 93 5568ft 125kts
11-Mar-19 21:14 35.272356 -120.721133 82 6573ft 119kts
11-Mar-19 21:15 35.264898 -120.678483 119 7010ft 154kts
11-Mar-19 21:16 35.234779 -120.639300 130 7001ft 159kts
11-Mar-19 21:17 35.203310 -120.601232 130 7001ft 159kts
11-Mar-19 21:18 35.171942 -120.563237 130 7006ft 158kts
11-Mar-19 21:19 35.140589 -120.525300 130 7000ft 158kts
11-Mar-19 21:20 35.109409 -120.487615 130 7004ft 158kts
11-Mar-19 21:21 35.078149 -120.449871 130 7002ft 157kts
11-Mar-19 21:22 35.046799 -120.412070 130 7003ft 158kts
11-Mar-19 21:23 35.015501 -120.374370 130 6999ft 158kts
11-Mar-19 21:24 34.984204 -120.336733 130 6997ft 158kts
11-Mar-19 21:25 34.953029 -120.299262 130 7003ft 157kts
11-Mar-19 21:26 34.921801 -120.261762 130 7000ft 157kts
11-Mar-19 21:27 34.890661 -120.224424 130 6994ft 157kts
11-Mar-19 21:28 34.859559 -120.187128 129 7057ft 155kts
11-Mar-19 21:29 34.828486 -120.149891 129 7056ft 157kts
11-Mar-19 21:30 34.797188 -120.112502 129 7054ft 157kts
11-Mar-19 21:31 34.765902 -120.075158 129 7044ft 157kts
11-Mar-19 21:32 34.734697 -120.037945 129 7035ft 157kts
11-Mar-19 21:33 34.703443 -120.000730 129 7037ft 156kts
11-Mar-19 21:34 34.671641 -119.962855 130 7033ft 167kts
11-Mar-19 21:35 34.639340 -119.924547 129 7031ft 158kts
11-Mar-19 21:36 34.607618 -119.886871 129 7026ft 160kts
11-Mar-19 21:37 34.575796 -119.849145 129 7015ft 160kts
11-Mar-19 21:38 34.543963 -119.811449 129 7007ft 159kts
11-Mar-19 21:39 34.512225 -119.773760 126 7002ft 159kts
11-Mar-19 21:40 34.487651 -119.730434 116 7001ft 155kts
11-Mar-19 21:41 34.463296 -119.685308 117 7003ft 166kts
11-Mar-19 21:42 34.438736 -119.640158 116 6998ft 155kts
11-Mar-19 21:43 34.414988 -119.596433 116 6989ft 155kts
11-Mar-19 21:44 34.391269 -119.552848 116 6984ft 155kts
11-Mar-19 21:45 34.367565 -119.509351 116 6978ft 154kts
11-Mar-19 21:46 34.343845 -119.465878 116 6972ft 154kts
11-Mar-19 21:47 34.320290 -119.422448 111 6965ft 152kts
11-Mar-19 21:48 34.319902 -119.374637 78 6961ft 142kts
11-Mar-19 21:49 34.323612 -119.326918 78 6957ft 142kts
11-Mar-19 21:50 34.327243 -119.279311 78 6955ft 141kts
11-Mar-19 21:51 34.330842 -119.231816 78 6954ft 141kts
11-Mar-19 21:52 34.334409 -119.184457 78 6952ft 141kts
11-Mar-19 21:53 34.331564 -119.137661 121 6957ft 154kts
11-Mar-19 21:54 34.299400 -119.101694 123 6950ft 155kts
11-Mar-19 21:55 34.282514 -119.056345 94 6949ft 145kts
11-Mar-19 21:56 34.276699 -119.008664 90 6949ft 143kts
11-Mar-19 21:57 34.271761 -118.961009 90 7002ft 143kts
11-Mar-19 21:58 34.266770 -118.911748 90 6535ft 154kts
11-Mar-19 21:59 34.262587 -118.870684 91 5901ft 155kts
11-Mar-19 22:14 34.293715 -118.725360 102 5005ft 145kts
11-Mar-19 22:15 34.280097 -118.679315 104 5002ft 145kts
11-Mar-19 22:16 34.266289 -118.633364 104 4998ft 146kts
11-Mar-19 22:17 34.252381 -118.587187 104 4993ft 146kts
11-Mar-19 22:18 34.225736 -118.549107 146 4550ft 166kts
11-Mar-19 22:19 34.185831 -118.520694 146 3750ft 165kts
11-Mar-19 22:20 34.147298 -118.491865 146 3046ft 158kts
11-Mar-19 22:21 34.111946 -118.464596 146 2997ft 148kts
11-Mar-19 22:22 34.080339 -118.440241 145 1928ft 116kts
11-Mar-19 22:23 34.056252 -118.424103 152 1391ft 99kts
11-Mar-19 22:24 34.033565 -118.431254 216 857ft 87kts
11-Mar-19 22:25 34.017952 -118.448817 224 178ft 57kts
11-Mar-19 22:26 34.013920 -118.454113 315 178ft 3kts
11-Mar-19 22:27 34.016371 -118.452373 321 178ft 7kts
11-Mar-19 22:28 34.016488 -118.452494 319 178ft 0kts
11-Mar-19 22:29 34.016488 -118.452494 319 178ft 0kts
11-Mar-19 22:30 34.016488 -118.452494 319 178ft 0kts
11-Mar-19 22:31 34.016488 -118.452494 319 178ft 0kts
11-Mar-19 22:32 34.016488 -118.452494 319 178ft 0kts
11-Mar-19 22:32 34.016488 -118.452494 319 178ft 0kts
11-Mar-19 22:34 34.016488 -118.452494 319 178ft 0kts
11-Mar-19 22:35 34.016488 -118.452494 319 178ft 0kts
11-Mar-19 22:35 34.016488 -118.452494 319 178ft 0kts
11-Mar-19 22:36 34.016488 -118.452494 319 178ft 0kts
11-Mar-19 22:37 34.016488 -118.452494 319 178ft 0kts
11-Mar-19 22:39 34.016488 -118.452494 319 178ft 0kts
11-Mar-19 22:39 34.016488 -118.452494 319 178ft 0kts

Navigation Log

Ident Type
Flight plan parsing failed, navigation log unavailable